San Francisco, California
Traffic Map
Current Weather Conditions
San Francisco, California
Few Clouds
Few Clouds
61°
Feels Like: 61°
Wind Chill: 61° Ceiling: Unl
Heat Index: 61° Visibility: 10mi
Dew Point: 50° Wind: 7mph
Humidity: 67% Direction: 350° (N)
Pressure: 29.91in Gusts: 0mph
Raw Report DataKSFO 301656Z 35006KT 10SM FEW009 16/10 A2991 RMK AO2 SLP129 T01610100
Traffic Incident Summary
Active as of:
Severity:
Category:
InformationThere was an issue retrieving the traffic information for this location. Please try a different location or try again shortly.
Advertisements
Track Severe Weather on mobile